Time;durP1;ratioP1;P1;durP2;ratioP2;P2;SDS_P1;SDS_P2;PMS_P1;PMS_P2;Temp;Humidity;BMP_temperature;BMP_pressure;BME280_temperature;BME280_humidity;BME280_pressure;Samples;Min_cycle;Max_cycle;Signal;HPM_P1;HPM_P2
2022/04/28 00:00:51;;;;;;;1.25;0.30;;;8.10;64.80;;;;;;5118430;28;20047;-72
2022/04/28 00:03:17;;;;;;;0.30;0.30;;;8.10;64.90;;;;;;5118739;28;20481;-70
2022/04/28 00:05:43;;;;;;;0.43;0.30;;;8.00;64.90;;;;;;5118528;28;20040;-71
2022/04/28 00:08:09;;;;;;;0.70;0.50;;;8.00;64.90;;;;;;5083280;28;20047;-71
2022/04/28 00:10:37;;;;;;;0.40;0.38;;;8.00;64.90;;;;;;5117484;28;20031;-71
2022/04/28 00:13:04;;;;;;;0.32;0.30;;;8.00;65.00;;;;;;5114986;28;20043;-71
2022/04/28 00:15:30;;;;;;;0.38;0.35;;;7.90;65.00;;;;;;5115141;28;20126;-71
2022/04/28 00:17:56;;;;;;;1.10;0.35;;;7.90;65.10;;;;;;5096778;28;20120;-71
2022/04/28 00:20:22;;;;;;;2.60;0.55;;;7.90;65.10;;;;;;5114942;28;20038;-71
2022/04/28 00:22:48;;;;;;;0.68;0.50;;;7.90;65.10;;;;;;5114810;28;20047;-71
2022/04/28 00:25:15;;;;;;;0.90;0.40;;;8.00;65.30;;;;;;5096555;28;20097;-71
2022/04/28 00:27:40;;;;;;;0.30;0.30;;;7.80;65.20;;;;;;5114781;28;20040;-71
2022/04/28 00:30:07;;;;;;;0.57;0.55;;;7.80;65.30;;;;;;5114794;28;20454;-71
2022/04/28 00:32:33;;;;;;;0.50;0.40;;;7.80;65.30;;;;;;5114649;28;20114;-71
2022/04/28 00:34:59;;;;;;;1.17;0.40;;;7.90;65.40;;;;;;5114869;28;20090;-70
2022/04/28 00:37:25;;;;;;;0.45;0.40;;;7.80;65.40;;;;;;5114925;28;20172;-72
2022/04/28 00:39:52;;;;;;;1.20;0.57;;;7.80;65.40;;;;;;5079296;28;20043;-70
2022/04/28 00:42:18;;;;;;;1.65;0.50;;;7.80;65.50;;;;;;5079299;28;20071;-71
2022/04/28 00:44:46;;;;;;;0.73;0.40;;;7.70;65.60;;;;;;5114728;28;20035;-71
2022/04/28 00:47:12;;;;;;;0.73;0.50;;;7.60;65.60;;;;;;5112320;28;20044;-71
2022/04/28 00:52:19;;;;;;;0.73;0.38;;;7.70;65.70;;;;;;5114192;28;20133;-71
2022/04/28 00:54:47;;;;;;;0.65;0.50;;;7.70;65.70;;;;;;5114837;28;20036;-71
2022/04/28 00:57:14;;;;;;;1.27;0.45;;;7.70;65.70;;;;;;5114489;28;20039;-71
2022/04/28 00:59:39;;;;;;;1.25;0.50;;;7.70;65.80;;;;;;5114152;28;20035;-71
2022/04/28 01:02:06;;;;;;;0.85;0.50;;;7.60;65.70;;;;;;5113961;28;20177;-71
2022/04/28 01:04:33;;;;;;;0.82;0.40;;;7.60;65.70;;;;;;5114183;28;20031;-71
2022/04/28 01:06:59;;;;;;;0.90;0.55;;;7.60;65.80;;;;;;5095842;28;20047;-71
2022/04/28 01:09:25;;;;;;;0.40;0.40;;;7.60;65.80;;;;;;5114048;28;20035;-71
2022/04/28 01:11:51;;;;;;;0.70;0.40;;;7.60;65.80;;;;;;5114094;28;20051;-71
2022/04/28 01:14:16;;;;;;;0.70;0.50;;;7.60;65.90;;;;;;5114105;28;20040;-71
2022/04/28 01:16:43;;;;;;;0.30;0.30;;;7.50;65.90;;;;;;5113735;28;20039;-71
2022/04/28 01:19:09;;;;;;;0.55;0.40;;;7.50;66.00;;;;;;5114220;28;20039;-71
2022/04/28 01:21:35;;;;;;;0.93;0.50;;;7.50;66.00;;;;;;5095645;28;20114;-73
2022/04/28 01:24:02;;;;;;;1.02;0.50;;;7.50;66.10;;;;;;5112643;28;20066;-71
2022/04/28 01:26:29;;;;;;;0.68;0.40;;;7.50;66.20;;;;;;5114233;28;20477;-71
2022/04/28 01:28:55;;;;;;;0.80;0.50;;;7.50;66.20;;;;;;5113688;28;20048;-72
2022/04/28 01:31:21;;;;;;;0.70;0.40;;;7.40;66.20;;;;;;5113758;28;20552;-71
2022/04/28 01:33:47;;;;;;;0.47;0.38;;;7.40;66.30;;;;;;5113571;28;20036;-71
2022/04/28 01:36:13;;;;;;;0.50;0.40;;;7.30;66.30;;;;;;5113895;28;20074;-71
2022/04/28 01:38:38;;;;;;;1.48;0.50;;;7.40;66.40;;;;;;5114063;28;20452;-71
2022/04/28 01:41:04;;;;;;;1.17;0.30;;;7.30;66.40;;;;;;5114153;28;20139;-70
2022/04/28 01:43:30;;;;;;;1.05;0.40;;;7.30;66.50;;;;;;5113468;28;20062;-70
2022/04/28 01:45:56;;;;;;;1.17;0.70;;;7.30;66.60;;;;;;5095749;28;20051;-71
2022/04/28 01:48:22;;;;;;;0.60;0.50;;;7.30;67.20;;;;;;5113766;28;20040;-70
2022/04/28 01:56:18;;;;;;;0.50;0.50;;;7.20;66.70;;;;;;5113320;28;20054;-70
2022/04/28 01:58:44;;;;;;;1.52;0.60;;;7.20;66.70;;;;;;5113785;28;20048;-73
2022/04/28 02:01:10;;;;;;;0.98;0.60;;;7.20;66.80;;;;;;5113301;28;20051;-73
2022/04/28 02:03:35;;;;;;;3.60;0.50;;;7.20;66.80;;;;;;5113417;28;20058;-72
2022/04/28 02:06:01;;;;;;;0.43;0.40;;;7.10;66.80;;;;;;5113705;28;20031;-72
2022/04/28 02:08:27;;;;;;;0.75;0.50;;;7.10;66.80;;;;;;5113369;28;20036;-70
2022/04/28 02:10:52;;;;;;;0.50;0.40;;;7.10;66.90;;;;;;5112961;28;20093;-70
2022/04/28 02:13:18;;;;;;;0.50;0.50;;;7.10;67.10;;;;;;5112810;28;20093;-70
2022/04/28 02:15:45;;;;;;;1.27;0.60;;;7.10;67.10;;;;;;5113509;28;20053;-70
2022/04/28 02:18:11;;;;;;;0.68;0.50;;;7.00;67.20;;;;;;5112989;28;20048;-71
2022/04/28 02:20:37;;;;;;;0.73;0.57;;;6.90;67.30;;;;;;5112914;28;20065;-70
2022/04/28 02:23:03;;;;;;;0.47;0.47;;;6.90;67.30;;;;;;5113043;28;20401;-70
2022/04/28 02:25:29;;;;;;;1.10;0.60;;;6.90;67.40;;;;;;5113635;28;20039;-70
2022/04/28 02:27:55;;;;;;;0.85;0.50;;;6.90;67.40;;;;;;5112915;28;20127;-70
2022/04/28 02:30:21;;;;;;;0.68;0.45;;;6.90;67.50;;;;;;5094622;28;20066;-72
2022/04/28 02:35:31;;;;;;;0.80;0.57;;;6.90;67.60;;;;;;5112072;28;20456;-70
2022/04/28 02:37:57;;;;;;;0.52;0.50;;;6.80;67.60;;;;;;5112830;28;20130;-70
2022/04/28 02:40:22;;;;;;;0.68;0.40;;;6.80;67.70;;;;;;5113443;28;20117;-70
2022/04/28 02:42:48;;;;;;;0.57;0.40;;;6.80;67.80;;;;;;5094726;28;20035;-71
2022/04/28 02:45:14;;;;;;;0.80;0.57;;;6.80;67.90;;;;;;5113155;28;20036;-70
2022/04/28 02:47:40;;;;;;;1.42;0.60;;;6.80;67.90;;;;;;5112805;28;20035;-71
2022/04/28 02:50:11;;;;;;;0.90;0.60;;;6.90;68.00;;;;;;5112425;28;20068;-70
2022/04/28 02:52:40;;;;;;;1.02;0.50;;;6.70;67.90;;;;;;5112504;28;20044;-70
2022/04/28 02:55:07;;;;;;;0.50;0.50;;;6.70;67.90;;;;;;5112388;28;20393;-71
2022/04/28 02:57:33;;;;;;;1.33;0.73;;;6.70;68.00;;;;;;5112285;28;20073;-70
2022/04/28 03:00:00;;;;;;;0.65;0.52;;;6.70;68.10;;;;;;5077238;28;20055;-72
2022/04/28 03:02:26;;;;;;;0.50;0.50;;;6.60;68.10;;;;;;5112428;28;20457;-72
2022/04/28 03:04:52;;;;;;;1.30;0.70;;;6.70;68.10;;;;;;5094023;28;20115;-73
2022/04/28 03:12:44;;;;;;;1.33;0.60;;;6.70;68.10;;;;;;5096149;28;20051;-73
2022/04/28 03:15:11;;;;;;;0.73;0.68;;;6.70;68.20;;;;;;5112395;28;20031;-72
2022/04/28 03:17:37;;;;;;;0.85;0.40;;;6.60;68.10;;;;;;5112854;28;20047;-72
2022/04/28 03:20:05;;;;;;;0.60;0.55;;;6.60;68.10;;;;;;5112563;28;20048;-72
2022/04/28 03:22:30;;;;;;;0.75;0.65;;;6.60;68.10;;;;;;5112685;28;20116;-73
2022/04/28 03:24:56;;;;;;;0.47;0.47;;;6.60;68.30;;;;;;5112547;28;20089;-73
2022/04/28 03:27:22;;;;;;;0.63;0.52;;;6.60;68.40;;;;;;5094128;28;20050;-74
2022/04/28 03:29:48;;;;;;;0.95;0.60;;;6.50;68.40;;;;;;5111930;28;20122;-72
2022/04/28 03:32:14;;;;;;;0.80;0.60;;;6.50;68.40;;;;;;5093704;28;20421;-72
2022/04/28 03:34:40;;;;;;;1.00;0.60;;;6.50;68.50;;;;;;5112221;28;20133;-72
2022/04/28 03:37:06;;;;;;;1.40;0.68;;;6.50;68.50;;;;;;5112128;28;20532;-73
2022/04/28 03:39:32;;;;;;;0.65;0.50;;;6.50;68.60;;;;;;5112396;28;20389;-73
2022/04/28 03:41:58;;;;;;;1.60;0.80;;;6.40;68.60;;;;;;5112037;28;20067;-73
2022/04/28 03:44:23;;;;;;;0.55;0.50;;;6.40;68.70;;;;;;5111954;28;20055;-73
2022/04/28 03:46:49;;;;;;;0.50;0.50;;;6.50;68.70;;;;;;5113115;28;20035;-72
2022/04/28 03:49:15;;;;;;;0.70;0.60;;;6.50;68.80;;;;;;5115494;28;20484;-72
2022/04/28 03:51:41;;;;;;;1.05;0.50;;;6.40;68.70;;;;;;5115522;28;20046;-72
2022/04/28 03:54:06;;;;;;;0.75;0.55;;;6.40;68.70;;;;;;5115783;28;20044;-72
2022/04/28 03:56:33;;;;;;;0.50;0.50;;;6.40;68.80;;;;;;5115246;28;20370;-72
2022/04/28 03:59:00;;;;;;;1.15;0.47;;;6.40;68.90;;;;;;5115504;28;20042;-72
2022/04/28 04:01:26;;;;;;;0.43;0.38;;;6.40;69.00;;;;;;5096976;28;20390;-72
2022/04/28 04:03:52;;;;;;;0.60;0.50;;;6.40;68.90;;;;;;5115298;28;20046;-72
2022/04/28 04:06:18;;;;;;;0.70;0.50;;;6.40;68.90;;;;;;5115379;28;20062;-72
2022/04/28 04:08:45;;;;;;;0.47;0.47;;;6.40;68.90;;;;;;5097516;28;20043;-72
2022/04/28 04:11:12;;;;;;;0.45;0.45;;;6.40;69.00;;;;;;5115241;28;20043;-72
2022/04/28 04:13:38;;;;;;;0.90;0.57;;;6.40;69.00;;;;;;5115243;28;20067;-72
2022/04/28 04:16:04;;;;;;;0.95;0.52;;;6.40;69.00;;;;;;5096863;28;20120;-72
2022/04/28 04:18:30;;;;;;;0.90;0.50;;;6.40;69.00;;;;;;5115787;28;20043;-70
2022/04/28 04:20:56;;;;;;;0.73;0.50;;;6.30;68.80;;;;;;5115404;28;20043;-70
2022/04/28 04:23:22;;;;;;;0.40;0.40;;;6.40;68.90;;;;;;5096741;28;20044;-72
2022/04/28 04:25:48;;;;;;;0.30;0.30;;;6.40;68.90;;;;;;5115137;28;20552;-73
2022/04/28 04:28:14;;;;;;;0.90;0.52;;;6.40;68.90;;;;;;5115070;28;20044;-72
2022/04/28 04:33:19;;;;;;;0.43;0.43;;;6.40;69.00;;;;;;5114998;28;20126;-73
2022/04/28 04:35:45;;;;;;;0.60;0.43;;;6.40;68.90;;;;;;5115488;28;20122;-73
2022/04/28 04:38:11;;;;;;;0.20;0.20;;;6.40;69.00;;;;;;5114744;28;20101;-73
2022/04/28 04:40:36;;;;;;;0.43;0.40;;;6.40;69.00;;;;;;5115017;28;20044;-72
2022/04/28 04:43:03;;;;;;;1.23;0.40;;;6.40;69.00;;;;;;5097286;28;20043;-72
2022/04/28 04:45:29;;;;;;;1.15;0.43;;;6.50;69.00;;;;;;5114751;28;20435;-72
2022/04/28 04:47:54;;;;;;;0.38;0.30;;;6.40;68.90;;;;;;5096775;28;20127;-73
2022/04/28 04:50:20;;;;;;;1.08;0.50;;;6.40;68.90;;;;;;5115285;28;20469;-71
2022/04/28 04:52:49;;;;;;;0.93;0.57;;;6.50;69.00;;;;;;5096392;28;20052;-71
2022/04/28 04:55:14;;;;;;;0.30;0.30;;;6.50;68.90;;;;;;5079621;28;20508;-73
2022/04/28 04:57:40;;;;;;;0.40;0.40;;;6.50;68.90;;;;;;5114261;28;20031;-72
2022/04/28 05:00:07;;;;;;;0.95;0.50;;;6.50;68.90;;;;;;5114678;28;20043;-73
2022/04/28 05:02:33;;;;;;;0.40;0.35;;;6.60;68.90;;;;;;5096038;28;20081;-72
2022/04/28 05:04:58;;;;;;;0.43;0.30;;;6.50;68.90;;;;;;5114242;28;20116;-73
2022/04/28 05:07:30;;;;;;;0.50;0.50;;;6.60;68.90;;;;;;5114866;28;20189;-73
2022/04/28 05:09:55;;;;;;;;;;;6.60;69.00;;;;;;5096794;28;20130;-72
2022/04/28 05:12:21;;;;;;;0.75;0.50;;;6.60;68.90;;;;;;5114204;28;19946;-72
2022/04/28 05:15:13;;;;;;;0.75;0.32;;;6.70;68.80;;;;;;5114392;28;20123;-73
2022/04/28 05:17:38;;;;;;;1.38;0.50;;;6.70;68.80;;;;;;5078751;28;20047;-72
2022/04/28 05:20:06;;;;;;;0.30;0.30;;;6.60;68.60;;;;;;5096378;28;20035;-72
2022/04/28 05:22:32;;;;;;;2.53;0.52;;;6.70;68.70;;;;;;5114168;28;20085;-73
2022/04/28 05:24:58;;;;;;;0.55;0.40;;;6.70;68.70;;;;;;5114424;28;20443;-72
2022/04/28 05:27:24;;;;;;;0.95;0.30;;;6.80;68.70;;;;;;5095621;28;20044;-72
2022/04/28 05:29:50;;;;;;;0.63;0.50;;;6.80;68.70;;;;;;5062366;28;20044;-72
2022/04/28 05:32:16;;;;;;;0.43;0.20;;;6.80;68.70;;;;;;5114119;28;20036;-72
2022/04/28 05:34:42;;;;;;;1.05;0.60;;;6.80;68.60;;;;;;5062268;28;20042;-71
2022/04/28 05:37:12;;;;;;;0.80;0.40;;;6.90;68.60;;;;;;5062254;28;20546;-72
2022/04/28 05:39:40;;;;;;;1.17;0.52;;;6.90;68.60;;;;;;5079597;28;20455;-73
2022/04/28 05:42:07;;;;;;;0.80;0.60;;;7.00;68.60;;;;;;5113974;28;20402;-73
2022/04/28 05:47:10;;;;;;;0.95;0.60;;;7.00;68.30;;;;;;5097280;28;20046;-72
2022/04/28 05:49:38;;;;;;;1.33;0.38;;;7.10;68.40;;;;;;5113611;28;20489;-72
2022/04/28 05:52:04;;;;;;;0.50;0.38;;;7.10;68.40;;;;;;5113645;28;20051;-72
2022/04/28 05:54:29;;;;;;;0.60;0.60;;;7.10;68.40;;;;;;5113726;28;20392;-73
2022/04/28 05:56:55;;;;;;;0.45;0.45;;;7.30;68.40;;;;;;5113499;28;20039;-73
2022/04/28 05:59:21;;;;;;;0.75;0.50;;;7.30;68.20;;;;;;5095411;28;20043;-71
2022/04/28 06:01:47;;;;;;;0.93;0.47;;;7.30;68.10;;;;;;5113681;28;20038;-71
2022/04/28 06:04:13;;;;;;;1.58;0.68;;;7.40;68.10;;;;;;5113412;28;20040;-73
2022/04/28 06:06:39;;;;;;;0.98;0.50;;;7.50;68.10;;;;;;5113533;28;20395;-73
2022/04/28 06:09:04;;;;;;;0.40;0.40;;;7.50;68.00;;;;;;5113039;28;20044;-73
2022/04/28 06:11:31;;;;;;;1.13;0.60;;;7.50;68.00;;;;;;5113400;28;20506;-72
2022/04/28 06:13:57;;;;;;;0.43;0.40;;;7.60;67.90;;;;;;5113861;28;20039;-73
2022/04/28 06:16:23;;;;;;;1.10;0.50;;;7.60;67.80;;;;;;5095244;28;20505;-72
2022/04/28 06:18:49;;;;;;;1.75;0.50;;;7.70;67.80;;;;;;5113946;28;20035;-73
2022/04/28 06:21:15;;;;;;;1.08;0.60;;;7.70;67.70;;;;;;5113227;28;20040;-73
2022/04/28 06:23:40;;;;;;;0.60;0.50;;;7.70;67.60;;;;;;5113136;28;20047;-72
2022/04/28 06:26:06;;;;;;;1.73;0.52;;;7.80;67.60;;;;;;5113239;28;20074;-74
2022/04/28 06:28:32;;;;;;;0.82;0.47;;;7.90;67.50;;;;;;5115291;28;20062;-73
2022/04/28 06:30:57;;;;;;;1.17;0.50;;;7.80;67.40;;;;;;5113920;28;20089;-73
2022/04/28 06:33:23;;;;;;;0.60;0.55;;;8.00;67.40;;;;;;5113550;28;20096;-73
2022/04/28 06:35:49;;;;;;;1.73;0.50;;;8.20;67.40;;;;;;5115116;28;20074;-73
2022/04/28 06:38:14;;;;;;;1.08;0.63;;;8.10;67.20;;;;;;5078888;28;20044;-75
2022/04/28 06:40:40;;;;;;;0.95;0.52;;;8.10;67.10;;;;;;5117785;28;20047;-75
2022/04/28 06:43:06;;;;;;;1.00;0.50;;;8.10;67.00;;;;;;5096725;28;20031;-73
2022/04/28 06:45:32;;;;;;;0.73;0.40;;;8.10;67.00;;;;;;5078754;28;20051;-74
2022/04/28 06:48:01;;;;;;;1.00;0.50;;;8.30;67.00;;;;;;5080781;28;20065;-75
2022/04/28 06:50:32;;;;;;;1.58;0.45;;;8.20;66.90;;;;;;5085009;28;20047;-74
2022/04/28 06:52:58;;;;;;;1.00;0.47;;;8.40;67.00;;;;;;5062623;28;20043;-75
2022/04/28 06:55:26;;;;;;;0.50;0.38;;;8.40;66.90;;;;;;5100650;28;20051;-75
2022/04/28 06:57:52;;;;;;;0.77;0.50;;;8.50;66.80;;;;;;5100494;28;20045;-75
2022/04/28 07:00:18;;;;;;;0.55;0.30;;;8.60;66.70;;;;;;5067254;28;20545;-75
2022/04/28 07:02:43;;;;;;;2.15;0.43;;;8.60;66.60;;;;;;5115958;28;20062;-75
2022/04/28 07:05:21;;;;;;;0.80;0.60;;;8.60;66.50;;;;;;5119743;28;20110;-74
2022/04/28 07:08:00;;;;;;;0.55;0.47;;;8.70;66.50;;;;;;5090719;28;20103;-75
2022/04/28 07:10:34;;;;;;;0.85;0.40;;;8.80;66.50;;;;;;5057498;28;20036;-75
2022/04/28 07:13:00;;;;;;;0.45;0.40;;;8.80;66.40;;;;;;5047869;28;20032;-75
2022/04/28 07:15:25;;;;;;;0.57;0.40;;;8.80;66.40;;;;;;5000389;28;20044;-75
2022/04/28 07:18:06;;;;;;;0.80;0.50;;;8.80;66.30;;;;;;5031207;28;20116;-74
2022/04/28 07:20:33;;;;;;;1.13;0.40;;;9.00;66.30;;;;;;4990669;28;20129;-74
2022/04/28 07:23:03;;;;;;;0.50;0.40;;;9.00;66.20;;;;;;4944768;28;20035;-75
2022/04/28 07:25:30;;;;;;;0.82;0.50;;;9.10;66.20;;;;;;4943400;28;20057;-74
2022/04/28 07:27:57;;;;;;;0.77;0.55;;;9.10;66.10;;;;;;4959944;28;20425;-73
2022/04/28 07:30:24;;;;;;;0.73;0.40;;;9.10;66.00;;;;;;4975121;28;20405;-73
2022/04/28 07:32:54;;;;;;;1.75;0.40;;;9.20;65.90;;;;;;4943037;28;20121;-74
2022/04/28 07:35:24;;;;;;;0.47;0.40;;;9.30;65.80;;;;;;5006871;28;20053;-74
2022/04/28 07:37:52;;;;;;;0.60;0.30;;;9.30;65.70;;;;;;4983214;28;20124;-74
2022/04/28 07:40:21;;;;;;;0.30;0.30;;;9.40;65.70;;;;;;4982119;28;20185;-74
2022/04/28 07:42:46;;;;;;;2.42;0.40;;;9.40;65.60;;;;;;4997144;28;20045;-74
2022/04/28 07:45:12;;;;;;;0.68;0.45;;;9.50;65.50;;;;;;5015750;28;20042;-74
2022/04/28 07:47:38;;;;;;;0.70;0.40;;;9.70;65.50;;;;;;5000926;28;20136;-74
2022/04/28 07:50:04;;;;;;;0.40;0.40;;;9.80;65.30;;;;;;4998238;28;20050;-74
2022/04/28 07:52:30;;;;;;;0.30;0.30;;;9.90;65.10;;;;;;5011245;28;20079;-74
2022/04/28 07:54:56;;;;;;;1.40;0.47;;;10.00;64.80;;;;;;5110126;28;20035;-74
2022/04/28 07:57:23;;;;;;;0.65;0.50;;;10.20;64.60;;;;;;5117916;28;20117;-75
2022/04/28 07:59:53;;;;;;;0.43;0.43;;;10.40;64.50;;;;;;5117073;28;20122;-74
2022/04/28 08:02:18;;;;;;;0.63;0.50;;;10.50;64.20;;;;;;5115389;28;20067;-73
2022/04/28 08:04:44;;;;;;;0.30;0.30;;;10.70;64.00;;;;;;5116129;28;20067;-74
2022/04/28 08:07:10;;;;;;;0.93;0.40;;;10.80;63.80;;;;;;5118725;28;20059;-74
2022/04/28 08:09:35;;;;;;;0.35;0.35;;;11.00;63.60;;;;;;5097497;28;20059;-72
2022/04/28 08:12:01;;;;;;;0.50;0.50;;;11.20;63.40;;;;;;5097397;28;20093;-73
2022/04/28 08:14:27;;;;;;;0.45;0.40;;;11.40;63.30;;;;;;5097119;28;20077;-73
2022/04/28 08:16:53;;;;;;;1.20;0.40;;;11.60;63.10;;;;;;5096945;28;20036;-72
2022/04/28 08:19:20;;;;;;;0.75;0.40;;;11.80;63.00;;;;;;5115432;28;20038;-73
2022/04/28 08:21:47;;;;;;;0.55;0.47;;;11.90;62.70;;;;;;5080063;28;20050;-74
2022/04/28 08:24:13;;;;;;;0.40;0.40;;;12.10;62.60;;;;;;5080590;28;20189;-74
2022/04/28 08:26:39;;;;;;;0.40;0.40;;;12.20;62.60;;;;;;5096944;28;20499;-73
2022/04/28 08:29:05;;;;;;;1.27;0.52;;;12.40;62.40;;;;;;5096562;28;20100;-73
2022/04/28 08:31:31;;;;;;;0.45;0.30;;;12.50;62.30;;;;;;5083866;28;20042;-70
2022/04/28 08:33:57;;;;;;;0.50;0.47;;;12.70;62.40;;;;;;5115980;28;20042;-75
2022/04/28 08:36:26;;;;;;;0.55;0.40;;;12.80;62.20;;;;;;5063704;28;20393;-71
2022/04/28 08:38:54;;;;;;;1.55;0.43;;;13.00;62.10;;;;;;5080253;28;20079;-74
2022/04/28 08:41:31;;;;;;;0.60;0.45;;;13.10;62.00;;;;;;5115226;28;20035;-73
2022/04/28 08:43:59;;;;;;;1.02;0.40;;;13.10;62.00;;;;;;5096063;28;20097;-72
2022/04/28 08:49:13;;;;;;;0.55;0.52;;;13.30;62.10;;;;;;5114475;28;20048;-71
2022/04/28 08:51:39;;;;;;;1.08;0.57;;;13.30;62.80;;;;;;5094505;28;20077;-72
2022/04/28 08:54:06;;;;;;;1.95;0.55;;;13.30;62.50;;;;;;5096900;28;20044;-72
2022/04/28 08:56:31;;;;;;;0.85;0.50;;;13.30;62.60;;;;;;5114682;28;20131;-75
2022/04/28 08:58:57;;;;;;;0.50;0.50;;;13.60;62.60;;;;;;5097785;28;20067;-74
2022/04/28 09:01:27;;;;;;;0.47;0.43;;;13.70;62.40;;;;;;5117908;28;20063;-73
2022/04/28 09:03:55;;;;;;;0.90;0.77;;;13.90;62.10;;;;;;5097004;28;20109;-73
2022/04/28 09:06:23;;;;;;;1.45;0.80;;;14.10;61.70;;;;;;5114645;28;20035;-71
2022/04/28 09:08:50;;;;;;;0.77;0.60;;;14.10;61.60;;;;;;5114185;28;20053;-71
2022/04/28 09:11:19;;;;;;;0.57;0.57;;;14.10;61.80;;;;;;5095858;28;20581;-71
2022/04/28 09:16:41;;;;;;;0.88;0.60;;;14.10;62.20;;;;;;5098904;28;20104;-71
2022/04/28 09:19:07;;;;;;;2.05;0.65;;;14.30;62.20;;;;;;5096491;28;20130;-74
2022/04/28 09:21:34;;;;;;;1.48;0.73;;;14.40;62.00;;;;;;5114988;28;20039;-73
2022/04/28 09:24:02;;;;;;;0.60;0.60;;;14.60;61.80;;;;;;5114445;28;20079;-72
2022/04/28 09:26:32;;;;;;;1.38;0.60;;;14.70;61.70;;;;;;5096383;28;20036;-72
2022/04/28 09:29:03;;;;;;;1.25;0.60;;;14.70;61.60;;;;;;5079314;28;20173;-72
2022/04/28 09:31:33;;;;;;;1.05;0.80;;;14.70;61.70;;;;;;5094606;28;20036;-71
2022/04/28 09:34:15;;;;;;;1.27;0.90;;;14.70;61.80;;;;;;5112602;28;20046;-70
2022/04/28 09:36:41;;;;;;;;;;;14.70;62.00;;;;;;5079067;28;20039;-71
2022/04/28 09:44:59;;;;;;;0.40;0.40;;;14.90;62.60;;;;;;5096823;28;20039;-72
2022/04/28 09:47:52;;;;;;;0.70;0.70;;;15.00;62.10;;;;;;5078392;28;20481;-72
2022/04/28 09:50:18;;;;;;;1.20;0.70;;;15.10;61.80;;;;;;5098072;28;20088;-71
2022/04/28 09:52:54;;;;;;;1.48;0.80;;;15.20;61.70;;;;;;5095787;28;20067;-73
2022/04/28 09:55:24;;;;;;;1.30;0.82;;;15.20;61.60;;;;;;5095232;28;20047;-72
2022/04/28 09:57:53;;;;;;;1.38;0.70;;;15.20;61.50;;;;;;5061841;28;20401;-72
2022/04/28 10:00:27;;;;;;;0.57;0.50;;;15.20;61.50;;;;;;5095991;28;20043;-72
2022/04/28 10:02:55;;;;;;;0.75;0.60;;;15.40;61.40;;;;;;5080046;28;20031;-72
2022/04/28 10:05:23;;;;;;;0.82;0.68;;;15.50;61.30;;;;;;5095266;28;20043;-72
2022/04/28 10:07:51;;;;;;;1.00;0.60;;;15.60;61.20;;;;;;5094837;28;20063;-72
2022/04/28 10:10:22;;;;;;;0.73;0.60;;;15.60;61.10;;;;;;5070619;28;20048;-72
2022/04/28 10:12:52;;;;;;;;;;;15.70;60.80;;;;;;5038016;28;20072;-72
2022/04/28 10:15:32;;;;;;;0.60;0.45;;;15.70;61.00;;;;;;5071479;28;19912;-73
2022/04/28 10:18:12;;;;;;;0.95;0.52;;;15.80;61.00;;;;;;5054786;28;20131;-72
2022/04/28 10:20:41;;;;;;;1.15;0.60;;;15.90;60.80;;;;;;5053663;28;20098;-72
2022/04/28 10:23:12;;;;;;;0.68;0.57;;;15.90;60.60;;;;;;5070618;28;20051;-72
2022/04/28 10:33:50;;;;;;;1.25;0.80;;;16.10;60.40;;;;;;5070234;28;20197;-72
2022/04/28 10:36:21;;;;;;;0.68;0.68;;;16.10;60.40;;;;;;5070458;28;20533;-72
2022/04/28 10:39:07;;;;;;;0.50;0.50;;;16.10;60.10;;;;;;5035900;28;20048;-72
2022/04/28 10:41:34;;;;;;;0.95;0.70;;;16.10;59.90;;;;;;5099461;28;20066;-73
2022/04/28 10:44:01;;;;;;;2.17;0.68;;;16.10;60.00;;;;;;5079223;28;20511;-74
2022/04/28 10:46:31;;;;;;;1.02;0.70;;;16.10;60.00;;;;;;5094969;28;20046;-73
2022/04/28 10:49:02;;;;;;;1.65;0.60;;;16.00;60.00;;;;;;5113970;28;20066;-71
2022/04/28 10:51:31;;;;;;;1.25;0.65;;;16.10;60.00;;;;;;5095220;28;20036;-71
2022/04/28 10:54:09;;;;;;;0.70;0.50;;;16.10;59.90;;;;;;5112794;28;20038;-71
2022/04/28 10:56:56;;;;;;;1.27;0.73;;;16.20;59.70;;;;;;5077759;28;20051;-71
2022/04/28 10:59:32;;;;;;;0.75;0.75;;;16.30;59.50;;;;;;5096638;28;20067;-73
2022/04/28 11:02:41;;;;;;;1.08;0.60;;;16.30;59.40;;;;;;5112192;28;20043;-73
2022/04/28 11:05:27;;;;;;;0.75;0.50;;;16.20;59.30;;;;;;5087373;28;20043;-71
2022/04/28 11:07:53;;;;;;;1.58;0.73;;;16.30;59.30;;;;;;5112864;28;20048;-71
2022/04/28 11:10:19;;;;;;;2.03;0.90;;;16.30;59.10;;;;;;5112711;28;20497;-73
2022/04/28 11:12:45;;;;;;;2.65;0.80;;;16.40;58.90;;;;;;5094158;28;20086;-73
2022/04/28 11:15:14;;;;;;;1.45;0.70;;;16.50;58.80;;;;;;5112834;28;20054;-73
2022/04/28 11:17:44;;;;;;;0.60;0.50;;;16.40;58.70;;;;;;5112935;28;20042;-73
2022/04/28 11:20:12;;;;;;;1.23;0.70;;;16.50;58.70;;;;;;5094048;28;20481;-73
2022/04/28 11:22:42;;;;;;;0.40;0.40;;;16.50;58.60;;;;;;5111511;28;20088;-74
2022/04/28 11:25:11;;;;;;;1.45;0.70;;;16.60;58.50;;;;;;5112486;28;20181;-74
2022/04/28 11:27:38;;;;;;;1.00;0.90;;;16.60;58.30;;;;;;5094033;28;20040;-74
2022/04/28 11:30:04;;;;;;;2.00;1.02;;;16.70;58.20;;;;;;5112634;28;20195;-74
2022/04/28 11:32:30;;;;;;;0.80;0.80;;;16.50;58.10;;;;;;5095789;28;20122;-75
2022/04/28 11:34:57;;;;;;;1.08;0.70;;;16.50;58.10;;;;;;5094136;28;20063;-76
2022/04/28 11:37:26;;;;;;;1.85;0.80;;;16.50;58.10;;;;;;5112709;28;20039;-77
2022/04/28 11:39:54;;;;;;;0.65;0.65;;;16.60;58.00;;;;;;5112819;28;20063;-77
2022/04/28 11:42:21;;;;;;;0.52;0.47;;;16.60;57.80;;;;;;5094840;28;20115;-75
2022/04/28 11:44:51;;;;;;;1.25;0.60;;;16.60;57.90;;;;;;5069222;28;20044;-75
2022/04/28 11:47:27;;;;;;;1.75;0.52;;;16.60;57.80;;;;;;5049999;28;20106;-76
2022/04/28 11:49:58;;;;;;;0.40;0.40;;;16.60;57.80;;;;;;5013396;28;20061;-77
2022/04/28 11:52:27;;;;;;;1.13;0.40;;;16.60;57.80;;;;;;4998520;28;20138;-75
2022/04/28 11:55:03;;;;;;;1.40;0.63;;;16.60;57.70;;;;;;5032146;28;20128;-75
2022/04/28 11:57:55;;;;;;;1.70;0.70;;;16.70;57.70;;;;;;5034326;28;20037;-77
2022/04/28 12:00:24;;;;;;;0.43;0.43;;;16.70;57.60;;;;;;4982623;28;20042;-77
2022/04/28 12:02:52;;;;;;;0.60;0.57;;;16.70;57.60;;;;;;4959849;28;20077;-77
2022/04/28 12:05:25;;;;;;;0.93;0.70;;;16.80;57.50;;;;;;4983922;28;20070;-77
2022/04/28 12:07:54;;;;;;;0.70;0.60;;;16.90;57.30;;;;;;4979334;28;20050;-77
2022/04/28 12:15:59;;;;;;;1.40;0.60;;;16.90;57.20;;;;;;5025436;28;20076;-76
2022/04/28 12:21:37;;;;;;;1.30;0.88;;;16.90;57.10;;;;;;5041822;28;20056;-75
2022/04/28 12:24:13;;;;;;;0.88;0.68;;;17.00;57.20;;;;;;5037674;28;20068;-73
2022/04/28 12:26:42;;;;;;;0.88;0.55;;;16.90;57.20;;;;;;5052708;28;20049;-74
2022/04/28 12:29:11;;;;;;;1.30;0.70;;;16.80;57.30;;;;;;5052652;28;20060;-75
2022/04/28 12:31:37;;;;;;;1.23;0.65;;;16.90;57.30;;;;;;5091962;28;20477;-76
2022/04/28 12:34:20;;;;;;;0.60;0.50;;;16.90;57.30;;;;;;5086010;28;20051;-75
2022/04/28 12:36:48;;;;;;;1.20;0.75;;;16.90;57.20;;;;;;5103497;28;20036;-75
2022/04/28 12:39:16;;;;;;;0.60;0.60;;;16.80;57.00;;;;;;5117058;28;20110;-72
2022/04/28 12:41:43;;;;;;;0.98;0.45;;;16.80;57.80;;;;;;5116780;28;20035;-71
2022/04/28 12:44:10;;;;;;;1.15;0.90;;;16.80;57.30;;;;;;5115459;28;20032;-71
2022/04/28 12:46:38;;;;;;;0.65;0.50;;;16.80;57.10;;;;;;5096973;28;20048;-75
2022/04/28 12:49:08;;;;;;;0.88;0.65;;;16.80;57.20;;;;;;5096891;28;20089;-73
2022/04/28 12:51:47;;;;;;;0.50;0.50;;;16.80;57.10;;;;;;5115020;28;20035;-73
2022/04/28 12:54:26;;;;;;;1.63;0.80;;;16.80;57.00;;;;;;5077676;28;20055;-73
2022/04/28 12:56:57;;;;;;;1.23;0.85;;;16.90;56.90;;;;;;5113719;28;20035;-74
2022/04/28 12:59:27;;;;;;;0.93;0.50;;;16.90;56.70;;;;;;5115638;28;20044;-74
2022/04/28 13:01:56;;;;;;;1.02;0.60;;;16.80;56.80;;;;;;5115621;28;20047;-74
2022/04/28 13:04:24;;;;;;;0.93;0.60;;;16.90;56.80;;;;;;5115034;28;20051;-75
2022/04/28 13:06:52;;;;;;;1.38;0.80;;;16.80;56.60;;;;;;5099713;28;20039;-73
2022/04/28 13:09:22;;;;;;;0.90;0.68;;;16.90;56.60;;;;;;5115883;28;20120;-75
2022/04/28 13:11:49;;;;;;;1.05;0.70;;;16.70;56.40;;;;;;5099769;28;20035;-71
2022/04/28 13:14:17;;;;;;;1.20;1.02;;;16.70;56.50;;;;;;5082788;28;20035;-74
2022/04/28 13:16:44;;;;;;;0.80;0.80;;;16.70;56.50;;;;;;5095989;28;20031;-71
2022/04/28 13:19:10;;;;;;;1.15;0.75;;;16.70;56.40;;;;;;5079727;28;20074;-73
2022/04/28 13:21:39;;;;;;;0.98;0.70;;;16.70;56.40;;;;;;5097447;28;20074;-74
2022/04/28 13:24:05;;;;;;;1.17;0.70;;;16.70;56.30;;;;;;5114447;28;20043;-74
2022/04/28 13:26:31;;;;;;;0.98;0.60;;;16.70;56.30;;;;;;5093988;28;20404;-74
2022/04/28 13:28:58;;;;;;;1.35;0.82;;;16.70;56.20;;;;;;5079569;28;20061;-73
2022/04/28 13:31:24;;;;;;;1.05;0.57;;;16.80;56.20;;;;;;5079168;28;20046;-73
2022/04/28 13:33:52;;;;;;;0.90;0.80;;;16.70;56.10;;;;;;5114242;28;20031;-73
2022/04/28 13:36:18;;;;;;;0.98;0.77;;;16.70;56.20;;;;;;5095672;28;20035;-74
2022/04/28 13:38:44;;;;;;;1.42;0.68;;;16.70;56.10;;;;;;5114652;28;20473;-73
2022/04/28 13:41:11;;;;;;;1.20;0.80;;;16.80;56.10;;;;;;5113903;28;20049;-73
2022/04/28 13:43:38;;;;;;;0.85;0.70;;;16.80;56.00;;;;;;5113742;28;20035;-72
2022/04/28 13:46:05;;;;;;;1.75;1.08;;;16.80;56.60;;;;;;5114309;28;20071;-72